Pagrindinis puslapis
METAR-TAF:

METAR-TAF

Oro uostai :

Ndžamena, Čadas

platuma: 12-08N, ilguma: 015-02E, Aukštis: 295 m

Dabartinis oras

Ataskaita buvo paskelbta 46 minutes, ne 18:00 UTC
Vėjas 8 kt iš Šiaurės
Temperatūra 29°C
Drėgmė 14%
Slėgis 1010 hPa
Matomumas: 3000 m
dulkės

METAR: FTTJ 171800Z 01008KT 3000 DU NSC 29/M01 Q1010 NOSIG

Laikas: 19:46 (18:46 UTC)

Prognozė

Ataskaita buvo paskelbta 1 valandą ir 46 minutes, ne 17:00 UTC
Prognozė galioja nuo 17 metu 18 UTC su 18 metu 24 UTC
Vėjas 10 kt iš Šiaurės
Matomumas: 2500 m
dulkės
Laikinai
nuo 17 metu 19 UTC su 17 metu 23 UTC
Matomumas: 0800 m
Tapsmas
nuo 18 metu 08 UTC su 18 metu 10 UTC
Matomumas: 6000 m

TAF: FTTJ 171700Z 1718/1824 36010KT 2500 DU NSC TEMPO 1719/1723 0800 BECMG 1808/1810 6000 NSW

Orai ataskaitas ir orų prognozės (METAR, TAF).

turimą stotys yra geltonos ir raudonos taškus žemėlapyje.

Perkelti pele per norėdami pamatyti stoties vardą.

Tada spustelėkite, norėdami matyti oro stebėjimo ir prognozės.

Norėdami pakeisti žemėlapį: spustelėkite ant žalios mygtukų su juodo kryžiaus žemyn,; žalią mygtuką su brūkšneliu, jei norite nutolinti; arba žalių rodyklių gretimoms žemėlapius.


METAR-TAF: